sensor_id;sensor_type;location;lat;lon;timestamp;P1;durP1;ratioP1;P2;durP2;ratioP2
78752;SDS011;68072;51.688;7.842;2023-05-07T00:01:50;7.72;;;5.25;;
78752;SDS011;68072;51.688;7.842;2023-05-07T00:04:16;8.45;;;5.97;;
78752;SDS011;68072;51.688;7.842;2023-05-07T00:06:42;7.70;;;5.82;;
78752;SDS011;68072;51.688;7.842;2023-05-07T00:09:07;6.65;;;5.20;;
78752;SDS011;68072;51.688;7.842;2023-05-07T00:11:33;6.88;;;5.57;;
78752;SDS011;68072;51.688;7.842;2023-05-07T00:13:58;6.85;;;5.35;;
78752;SDS011;68072;51.688;7.842;2023-05-07T00:16:24;7.82;;;5.13;;
78752;SDS011;68072;51.688;7.842;2023-05-07T00:18:49;8.80;;;6.03;;
78752;SDS011;68072;51.688;7.842;2023-05-07T00:21:15;8.00;;;5.90;;
78752;SDS011;68072;51.688;7.842;2023-05-07T00:23:41;7.82;;;6.00;;
78752;SDS011;68072;51.688;7.842;2023-05-07T00:26:06;6.43;;;5.25;;
78752;SDS011;68072;51.688;7.842;2023-05-07T00:28:31;8.65;;;5.75;;
78752;SDS011;68072;51.688;7.842;2023-05-07T00:30:57;8.82;;;6.07;;
78752;SDS011;68072;51.688;7.842;2023-05-07T00:33:22;7.25;;;5.10;;
78752;SDS011;68072;51.688;7.842;2023-05-07T00:35:48;6.93;;;5.15;;
78752;SDS011;68072;51.688;7.842;2023-05-07T00:38:13;8.90;;;5.40;;
78752;SDS011;68072;51.688;7.842;2023-05-07T00:40:39;6.05;;;4.95;;
78752;SDS011;68072;51.688;7.842;2023-05-07T00:43:04;6.40;;;5.22;;
78752;SDS011;68072;51.688;7.842;2023-05-07T00:45:30;9.07;;;5.85;;
78752;SDS011;68072;51.688;7.842;2023-05-07T00:47:55;9.68;;;6.88;;
78752;SDS011;68072;51.688;7.842;2023-05-07T00:50:23;8.40;;;5.63;;
78752;SDS011;68072;51.688;7.842;2023-05-07T00:52:48;9.65;;;6.32;;
78752;SDS011;68072;51.688;7.842;2023-05-07T00:55:14;9.45;;;6.43;;
78752;SDS011;68072;51.688;7.842;2023-05-07T00:57:40;6.95;;;5.88;;
78752;SDS011;68072;51.688;7.842;2023-05-07T01:00:06;10.15;;;6.47;;
78752;SDS011;68072;51.688;7.842;2023-05-07T01:02:37;7.88;;;6.00;;
78752;SDS011;68072;51.688;7.842;2023-05-07T01:05:04;8.57;;;5.90;;
78752;SDS011;68072;51.688;7.842;2023-05-07T01:07:31;8.43;;;5.57;;
78752;SDS011;68072;51.688;7.842;2023-05-07T01:12:22;6.83;;;5.57;;
78752;SDS011;68072;51.688;7.842;2023-05-07T01:14:48;7.70;;;5.47;;
78752;SDS011;68072;51.688;7.842;2023-05-07T01:17:15;9.05;;;5.82;;
78752;SDS011;68072;51.688;7.842;2023-05-07T01:19:41;10.25;;;6.22;;
78752;SDS011;68072;51.688;7.842;2023-05-07T01:22:08;10.43;;;6.15;;
78752;SDS011;68072;51.688;7.842;2023-05-07T01:24:34;12.02;;;6.85;;
78752;SDS011;68072;51.688;7.842;2023-05-07T01:27:00;11.07;;;7.07;;
78752;SDS011;68072;51.688;7.842;2023-05-07T01:29:26;9.38;;;7.07;;
78752;SDS011;68072;51.688;7.842;2023-05-07T01:31:52;9.60;;;6.60;;
78752;SDS011;68072;51.688;7.842;2023-05-07T01:34:17;9.52;;;6.60;;
78752;SDS011;68072;51.688;7.842;2023-05-07T01:36:43;9.23;;;6.65;;
78752;SDS011;68072;51.688;7.842;2023-05-07T01:39:09;10.90;;;6.45;;
78752;SDS011;68072;51.688;7.842;2023-05-07T01:41:35;11.40;;;6.70;;
78752;SDS011;68072;51.688;7.842;2023-05-07T01:44:01;10.07;;;6.72;;
78752;SDS011;68072;51.688;7.842;2023-05-07T01:46:26;10.70;;;7.25;;
78752;SDS011;68072;51.688;7.842;2023-05-07T01:48:52;10.45;;;6.18;;
78752;SDS011;68072;51.688;7.842;2023-05-07T01:51:18;7.47;;;5.90;;
78752;SDS011;68072;51.688;7.842;2023-05-07T01:53:45;10.20;;;6.25;;
78752;SDS011;68072;51.688;7.842;2023-05-07T01:56:12;9.80;;;6.30;;
78752;SDS011;68072;51.688;7.842;2023-05-07T01:58:38;11.85;;;6.45;;
78752;SDS011;68072;51.688;7.842;2023-05-07T02:01:03;10.52;;;6.65;;
78752;SDS011;68072;51.688;7.842;2023-05-07T02:03:29;10.98;;;6.95;;
78752;SDS011;68072;51.688;7.842;2023-05-07T02:05:54;10.65;;;7.50;;
78752;SDS011;68072;51.688;7.842;2023-05-07T02:08:20;11.85;;;7.47;;
78752;SDS011;68072;51.688;7.842;2023-05-07T02:10:45;11.02;;;7.10;;
78752;SDS011;68072;51.688;7.842;2023-05-07T02:13:10;10.57;;;6.97;;
78752;SDS011;68072;51.688;7.842;2023-05-07T02:15:36;9.65;;;6.47;;
78752;SDS011;68072;51.688;7.842;2023-05-07T02:18:03;11.23;;;6.65;;
78752;SDS011;68072;51.688;7.842;2023-05-07T02:20:29;10.90;;;6.38;;
78752;SDS011;68072;51.688;7.842;2023-05-07T02:22:55;10.10;;;6.97;;
78752;SDS011;68072;51.688;7.842;2023-05-07T02:25:20;10.20;;;6.95;;
78752;SDS011;68072;51.688;7.842;2023-05-07T02:27:46;9.48;;;6.57;;
78752;SDS011;68072;51.688;7.842;2023-05-07T02:30:11;10.48;;;7.10;;
78752;SDS011;68072;51.688;7.842;2023-05-07T02:32:39;11.18;;;6.95;;
78752;SDS011;68072;51.688;7.842;2023-05-07T02:35:04;7.70;;;6.28;;
78752;SDS011;68072;51.688;7.842;2023-05-07T02:37:30;14.38;;;7.50;;
78752;SDS011;68072;51.688;7.842;2023-05-07T02:39:55;13.75;;;7.32;;
78752;SDS011;68072;51.688;7.842;2023-05-07T02:42:21;11.27;;;8.25;;
78752;SDS011;68072;51.688;7.842;2023-05-07T03:00:58;9.18;;;6.20;;
78752;SDS011;68072;51.688;7.842;2023-05-07T03:03:24;9.02;;;6.43;;
78752;SDS011;68072;51.688;7.842;2023-05-07T03:05:49;9.23;;;6.45;;
78752;SDS011;68072;51.688;7.842;2023-05-07T03:08:15;9.23;;;6.43;;
78752;SDS011;68072;51.688;7.842;2023-05-07T03:10:40;10.18;;;7.03;;
78752;SDS011;68072;51.688;7.842;2023-05-07T03:13:05;11.38;;;8.00;;
78752;SDS011;68072;51.688;7.842;2023-05-07T03:15:31;10.02;;;6.70;;
78752;SDS011;68072;51.688;7.842;2023-05-07T03:17:56;10.60;;;7.45;;
78752;SDS011;68072;51.688;7.842;2023-05-07T03:20:22;12.65;;;8.32;;
78752;SDS011;68072;51.688;7.842;2023-05-07T03:22:47;13.15;;;8.07;;
78752;SDS011;68072;51.688;7.842;2023-05-07T03:25:13;12.30;;;8.25;;
78752;SDS011;68072;51.688;7.842;2023-05-07T03:30:07;12.38;;;7.85;;
78752;SDS011;68072;51.688;7.842;2023-05-07T03:32:33;15.18;;;8.55;;
78752;SDS011;68072;51.688;7.842;2023-05-07T03:35:00;12.68;;;7.65;;
78752;SDS011;68072;51.688;7.842;2023-05-07T03:37:25;14.60;;;7.22;;
78752;SDS011;68072;51.688;7.842;2023-05-07T03:39:51;15.10;;;8.68;;
78752;SDS011;68072;51.688;7.842;2023-05-07T03:42:16;15.70;;;9.02;;
78752;SDS011;68072;51.688;7.842;2023-05-07T03:44:42;14.40;;;9.13;;
78752;SDS011;68072;51.688;7.842;2023-05-07T03:47:07;15.15;;;8.48;;
78752;SDS011;68072;51.688;7.842;2023-05-07T03:49:32;16.77;;;9.02;;
78752;SDS011;68072;51.688;7.842;2023-05-07T03:51:58;16.58;;;10.25;;
78752;SDS011;68072;51.688;7.842;2023-05-07T03:54:23;19.50;;;10.35;;
78752;SDS011;68072;51.688;7.842;2023-05-07T03:56:49;19.80;;;11.25;;
78752;SDS011;68072;51.688;7.842;2023-05-07T03:59:14;17.52;;;10.90;;
78752;SDS011;68072;51.688;7.842;2023-05-07T04:01:40;16.10;;;10.27;;
78752;SDS011;68072;51.688;7.842;2023-05-07T04:04:05;18.17;;;10.95;;
78752;SDS011;68072;51.688;7.842;2023-05-07T04:06:31;19.23;;;10.95;;
78752;SDS011;68072;51.688;7.842;2023-05-07T04:08:56;22.10;;;13.20;;
78752;SDS011;68072;51.688;7.842;2023-05-07T04:11:22;20.98;;;12.48;;
78752;SDS011;68072;51.688;7.842;2023-05-07T04:13:47;22.90;;;12.20;;
78752;SDS011;68072;51.688;7.842;2023-05-07T04:16:13;24.75;;;11.63;;
78752;SDS011;68072;51.688;7.842;2023-05-07T04:18:38;20.23;;;12.50;;
78752;SDS011;68072;51.688;7.842;2023-05-07T04:21:04;22.10;;;12.43;;
78752;SDS011;68072;51.688;7.842;2023-05-07T04:23:29;19.77;;;12.77;;
78752;SDS011;68072;51.688;7.842;2023-05-07T04:25:55;18.75;;;12.13;;
78752;SDS011;68072;51.688;7.842;2023-05-07T04:28:21;22.45;;;13.27;;
78752;SDS011;68072;51.688;7.842;2023-05-07T04:30:46;26.13;;;14.50;;
78752;SDS011;68072;51.688;7.842;2023-05-07T04:33:13;20.85;;;13.45;;
78752;SDS011;68072;51.688;7.842;2023-05-07T04:35:39;22.15;;;13.60;;
78752;SDS011;68072;51.688;7.842;2023-05-07T04:38:05;20.90;;;13.02;;
78752;SDS011;68072;51.688;7.842;2023-05-07T04:40:30;24.73;;;14.65;;
78752;SDS011;68072;51.688;7.842;2023-05-07T04:42:56;24.70;;;13.18;;
78752;SDS011;68072;51.688;7.842;2023-05-07T04:45:21;26.30;;;15.35;;
78752;SDS011;68072;51.688;7.842;2023-05-07T04:47:46;28.10;;;14.02;;
78752;SDS011;68072;51.688;7.842;2023-05-07T04:50:12;28.35;;;15.40;;
78752;SDS011;68072;51.688;7.842;2023-05-07T04:52:37;27.73;;;14.73;;
78752;SDS011;68072;51.688;7.842;2023-05-07T04:55:02;25.55;;;15.20;;
78752;SDS011;68072;51.688;7.842;2023-05-07T04:57:28;25.40;;;15.32;;
78752;SDS011;68072;51.688;7.842;2023-05-07T04:59:53;23.58;;;15.20;;
78752;SDS011;68072;51.688;7.842;2023-05-07T05:02:19;27.33;;;15.60;;
78752;SDS011;68072;51.688;7.842;2023-05-07T05:04:44;26.80;;;16.42;;
78752;SDS011;68072;51.688;7.842;2023-05-07T05:07:10;26.65;;;16.45;;
78752;SDS011;68072;51.688;7.842;2023-05-07T05:09:35;25.45;;;16.40;;
78752;SDS011;68072;51.688;7.842;2023-05-07T05:12:01;29.85;;;16.55;;
78752;SDS011;68072;51.688;7.842;2023-05-07T05:14:26;28.65;;;16.45;;
78752;SDS011;68072;51.688;7.842;2023-05-07T05:16:52;31.70;;;17.02;;
78752;SDS011;68072;51.688;7.842;2023-05-07T05:19:17;26.92;;;17.00;;
78752;SDS011;68072;51.688;7.842;2023-05-07T05:21:42;28.42;;;16.80;;
78752;SDS011;68072;51.688;7.842;2023-05-07T05:24:08;32.47;;;16.65;;
78752;SDS011;68072;51.688;7.842;2023-05-07T05:26:33;29.38;;;16.40;;
78752;SDS011;68072;51.688;7.842;2023-05-07T05:28:59;29.42;;;16.85;;
78752;SDS011;68072;51.688;7.842;2023-05-07T05:31:25;28.92;;;16.40;;
78752;SDS011;68072;51.688;7.842;2023-05-07T05:33:50;26.58;;;16.23;;
78752;SDS011;68072;51.688;7.842;2023-05-07T05:36:16;25.88;;;16.13;;
78752;SDS011;68072;51.688;7.842;2023-05-07T05:38:41;26.10;;;16.63;;
78752;SDS011;68072;51.688;7.842;2023-05-07T05:41:07;30.65;;;16.30;;
78752;SDS011;68072;51.688;7.842;2023-05-07T05:43:32;25.95;;;16.38;;
78752;SDS011;68072;51.688;7.842;2023-05-07T05:45:57;24.58;;;15.90;;
78752;SDS011;68072;51.688;7.842;2023-05-07T05:48:23;27.52;;;16.35;;
78752;SDS011;68072;51.688;7.842;2023-05-07T05:50:49;28.30;;;16.52;;
78752;SDS011;68072;51.688;7.842;2023-05-07T05:53:14;26.05;;;16.23;;
78752;SDS011;68072;51.688;7.842;2023-05-07T05:55:41;25.70;;;16.13;;
78752;SDS011;68072;51.688;7.842;2023-05-07T05:58:06;25.83;;;16.00;;
78752;SDS011;68072;51.688;7.842;2023-05-07T06:00:32;27.73;;;15.95;;
78752;SDS011;68072;51.688;7.842;2023-05-07T06:02:57;25.73;;;16.42;;
78752;SDS011;68072;51.688;7.842;2023-05-07T06:05:23;26.80;;;16.73;;
78752;SDS011;68072;51.688;7.842;2023-05-07T06:07:48;27.58;;;16.10;;
78752;SDS011;68072;51.688;7.842;2023-05-07T06:10:14;23.58;;;14.95;;
78752;SDS011;68072;51.688;7.842;2023-05-07T06:12:42;25.85;;;16.33;;
78752;SDS011;68072;51.688;7.842;2023-05-07T06:15:08;24.42;;;15.15;;
78752;SDS011;68072;51.688;7.842;2023-05-07T06:17:33;25.35;;;14.50;;
78752;SDS011;68072;51.688;7.842;2023-05-07T06:19:59;20.88;;;14.07;;
78752;SDS011;68072;51.688;7.842;2023-05-07T06:22:24;23.50;;;14.50;;
78752;SDS011;68072;51.688;7.842;2023-05-07T06:24:50;23.98;;;15.38;;
78752;SDS011;68072;51.688;7.842;2023-05-07T06:27:15;25.95;;;14.82;;
78752;SDS011;68072;51.688;7.842;2023-05-07T06:29:41;23.88;;;15.63;;
78752;SDS011;68072;51.688;7.842;2023-05-07T06:32:10;22.98;;;15.52;;
78752;SDS011;68072;51.688;7.842;2023-05-07T06:34:36;23.33;;;15.10;;
78752;SDS011;68072;51.688;7.842;2023-05-07T06:37:02;23.35;;;15.27;;
78752;SDS011;68072;51.688;7.842;2023-05-07T06:39:27;22.75;;;15.27;;
78752;SDS011;68072;51.688;7.842;2023-05-07T06:41:53;26.98;;;15.93;;
78752;SDS011;68072;51.688;7.842;2023-05-07T06:44:18;27.58;;;14.65;;
78752;SDS011;68072;51.688;7.842;2023-05-07T06:46:44;23.45;;;14.35;;
78752;SDS011;68072;51.688;7.842;2023-05-07T06:49:10;31.70;;;15.52;;
78752;SDS011;68072;51.688;7.842;2023-05-07T06:51:37;27.35;;;16.27;;
78752;SDS011;68072;51.688;7.842;2023-05-07T06:54:03;23.13;;;14.02;;
78752;SDS011;68072;51.688;7.842;2023-05-07T06:56:29;27.60;;;15.65;;
78752;SDS011;68072;51.688;7.842;2023-05-07T06:58:55;27.10;;;14.93;;
78752;SDS011;68072;51.688;7.842;2023-05-07T07:01:20;24.92;;;15.55;;
78752;SDS011;68072;51.688;7.842;2023-05-07T07:03:46;24.23;;;15.98;;
78752;SDS011;68072;51.688;7.842;2023-05-07T07:06:11;26.08;;;15.32;;
78752;SDS011;68072;51.688;7.842;2023-05-07T07:08:37;25.25;;;15.60;;
78752;SDS011;68072;51.688;7.842;2023-05-07T07:11:04;22.08;;;14.70;;
78752;SDS011;68072;51.688;7.842;2023-05-07T07:13:33;25.88;;;15.90;;
78752;SDS011;68072;51.688;7.842;2023-05-07T07:15:58;26.83;;;15.13;;
78752;SDS011;68072;51.688;7.842;2023-05-07T07:18:24;24.52;;;14.75;;
78752;SDS011;68072;51.688;7.842;2023-05-07T07:20:50;24.08;;;14.57;;
78752;SDS011;68072;51.688;7.842;2023-05-07T07:23:15;25.50;;;14.02;;
78752;SDS011;68072;51.688;7.842;2023-05-07T07:25:41;24.50;;;15.55;;
78752;SDS011;68072;51.688;7.842;2023-05-07T07:28:06;25.92;;;14.38;;
78752;SDS011;68072;51.688;7.842;2023-05-07T07:30:32;25.17;;;15.55;;
78752;SDS011;68072;51.688;7.842;2023-05-07T07:32:57;24.38;;;15.10;;
78752;SDS011;68072;51.688;7.842;2023-05-07T07:35:27;22.08;;;14.25;;
78752;SDS011;68072;51.688;7.842;2023-05-07T07:37:56;24.23;;;14.70;;
78752;SDS011;68072;51.688;7.842;2023-05-07T07:40:22;23.00;;;15.18;;
78752;SDS011;68072;51.688;7.842;2023-05-07T07:42:47;24.25;;;15.63;;
78752;SDS011;68072;51.688;7.842;2023-05-07T07:45:13;28.52;;;15.77;;
78752;SDS011;68072;51.688;7.842;2023-05-07T07:47:39;27.15;;;15.13;;
78752;SDS011;68072;51.688;7.842;2023-05-07T07:50:05;22.45;;;13.60;;
78752;SDS011;68072;51.688;7.842;2023-05-07T07:52:32;24.45;;;15.25;;
78752;SDS011;68072;51.688;7.842;2023-05-07T07:54:57;24.75;;;15.82;;
78752;SDS011;68072;51.688;7.842;2023-05-07T07:57:23;22.75;;;14.02;;
78752;SDS011;68072;51.688;7.842;2023-05-07T07:59:49;21.08;;;14.07;;
78752;SDS011;68072;51.688;7.842;2023-05-07T08:02:15;23.70;;;13.70;;
78752;SDS011;68072;51.688;7.842;2023-05-07T08:04:40;22.00;;;14.13;;
78752;SDS011;68072;51.688;7.842;2023-05-07T08:07:08;21.00;;;13.55;;
78752;SDS011;68072;51.688;7.842;2023-05-07T08:09:37;22.05;;;14.63;;
78752;SDS011;68072;51.688;7.842;2023-05-07T08:12:02;23.23;;;13.75;;
78752;SDS011;68072;51.688;7.842;2023-05-07T08:14:28;21.10;;;13.75;;
78752;SDS011;68072;51.688;7.842;2023-05-07T08:16:54;20.83;;;13.32;;
78752;SDS011;68072;51.688;7.842;2023-05-07T08:19:20;22.55;;;13.27;;
78752;SDS011;68072;51.688;7.842;2023-05-07T08:21:46;21.48;;;13.25;;
78752;SDS011;68072;51.688;7.842;2023-05-07T08:24:15;25.92;;;14.80;;
78752;SDS011;68072;51.688;7.842;2023-05-07T08:26:42;24.15;;;13.68;;
78752;SDS011;68072;51.688;7.842;2023-05-07T08:29:08;23.88;;;14.13;;
78752;SDS011;68072;51.688;7.842;2023-05-07T08:31:33;21.63;;;13.77;;
78752;SDS011;68072;51.688;7.842;2023-05-07T08:33:59;24.67;;;15.07;;
78752;SDS011;68072;51.688;7.842;2023-05-07T08:36:25;21.60;;;13.73;;
78752;SDS011;68072;51.688;7.842;2023-05-07T08:38:53;22.80;;;13.00;;
78752;SDS011;68072;51.688;7.842;2023-05-07T08:41:19;20.00;;;12.73;;
78752;SDS011;68072;51.688;7.842;2023-05-07T08:43:49;21.67;;;13.38;;
78752;SDS011;68072;51.688;7.842;2023-05-07T08:46:19;18.85;;;12.95;;
78752;SDS011;68072;51.688;7.842;2023-05-07T08:48:47;23.58;;;14.38;;
78752;SDS011;68072;51.688;7.842;2023-05-07T08:51:14;20.15;;;13.13;;
78752;SDS011;68072;51.688;7.842;2023-05-07T08:53:41;20.25;;;12.90;;
78752;SDS011;68072;51.688;7.842;2023-05-07T08:56:08;19.75;;;13.75;;
78752;SDS011;68072;51.688;7.842;2023-05-07T08:58:33;24.48;;;13.25;;
78752;SDS011;68072;51.688;7.842;2023-05-07T09:00:59;20.92;;;13.63;;
78752;SDS011;68072;51.688;7.842;2023-05-07T09:03:28;21.35;;;13.35;;
78752;SDS011;68072;51.688;7.842;2023-05-07T09:05:55;19.90;;;13.00;;
78752;SDS011;68072;51.688;7.842;2023-05-07T09:08:24;21.63;;;13.40;;
78752;SDS011;68072;51.688;7.842;2023-05-07T09:10:50;18.40;;;12.35;;
78752;SDS011;68072;51.688;7.842;2023-05-07T09:13:15;22.02;;;13.10;;
78752;SDS011;68072;51.688;7.842;2023-05-07T09:15:43;18.30;;;12.05;;
78752;SDS011;68072;51.688;7.842;2023-05-07T09:18:08;18.15;;;11.77;;
78752;SDS011;68072;51.688;7.842;2023-05-07T09:20:35;19.58;;;13.15;;
78752;SDS011;68072;51.688;7.842;2023-05-07T09:23:01;21.08;;;12.85;;
78752;SDS011;68072;51.688;7.842;2023-05-07T09:25:28;20.33;;;12.23;;
78752;SDS011;68072;51.688;7.842;2023-05-07T09:27:54;20.30;;;12.70;;
78752;SDS011;68072;51.688;7.842;2023-05-07T09:30:20;18.73;;;12.00;;
78752;SDS011;68072;51.688;7.842;2023-05-07T09:32:45;18.23;;;12.45;;
78752;SDS011;68072;51.688;7.842;2023-05-07T09:35:14;19.75;;;11.85;;
78752;SDS011;68072;51.688;7.842;2023-05-07T09:37:41;17.27;;;11.70;;
78752;SDS011;68072;51.688;7.842;2023-05-07T09:40:07;18.48;;;12.13;;
78752;SDS011;68072;51.688;7.842;2023-05-07T09:42:34;18.40;;;11.32;;
78752;SDS011;68072;51.688;7.842;2023-05-07T09:44:59;18.73;;;10.95;;
78752;SDS011;68072;51.688;7.842;2023-05-07T09:47:25;16.00;;;10.93;;
78752;SDS011;68072;51.688;7.842;2023-05-07T09:49:55;16.33;;;11.05;;
78752;SDS011;68072;51.688;7.842;2023-05-07T09:52:21;15.15;;;11.18;;
78752;SDS011;68072;51.688;7.842;2023-05-07T09:54:47;15.05;;;9.57;;
78752;SDS011;68072;51.688;7.842;2023-05-07T09:57:14;17.80;;;10.98;;
78752;SDS011;68072;51.688;7.842;2023-05-07T09:59:41;19.48;;;11.95;;
78752;SDS011;68072;51.688;7.842;2023-05-07T10:02:08;15.88;;;10.40;;
78752;SDS011;68072;51.688;7.842;2023-05-07T10:04:35;15.55;;;10.73;;
78752;SDS011;68072;51.688;7.842;2023-05-07T10:07:01;17.85;;;10.60;;
78752;SDS011;68072;51.688;7.842;2023-05-07T10:09:26;14.75;;;10.75;;
78752;SDS011;68072;51.688;7.842;2023-05-07T10:11:52;17.67;;;11.35;;
78752;SDS011;68072;51.688;7.842;2023-05-07T10:14:19;15.30;;;10.07;;
78752;SDS011;68072;51.688;7.842;2023-05-07T10:16:46;15.88;;;11.05;;
78752;SDS011;68072;51.688;7.842;2023-05-07T10:19:12;18.60;;;11.65;;
78752;SDS011;68072;51.688;7.842;2023-05-07T10:21:39;15.88;;;10.73;;
78752;SDS011;68072;51.688;7.842;2023-05-07T10:24:16;17.38;;;11.32;;
78752;SDS011;68072;51.688;7.842;2023-05-07T10:26:45;14.50;;;9.60;;
78752;SDS011;68072;51.688;7.842;2023-05-07T10:34:44;16.45;;;10.35;;
78752;SDS011;68072;51.688;7.842;2023-05-07T10:37:10;12.85;;;9.88;;
78752;SDS011;68072;51.688;7.842;2023-05-07T10:42:11;15.98;;;10.25;;
78752;SDS011;68072;51.688;7.842;2023-05-07T10:44:37;11.98;;;8.90;;
78752;SDS011;68072;51.688;7.842;2023-05-07T10:49:29;16.48;;;9.35;;
78752;SDS011;68072;51.688;7.842;2023-05-07T10:54:36;13.63;;;9.68;;
78752;SDS011;68072;51.688;7.842;2023-05-07T10:59:47;11.80;;;7.85;;
78752;SDS011;68072;51.688;7.842;2023-05-07T11:04:39;14.48;;;9.73;;
78752;SDS011;68072;51.688;7.842;2023-05-07T11:17:07;10.57;;;6.95;;
78752;SDS011;68072;51.688;7.842;2023-05-07T11:19:53;9.70;;;7.10;;
78752;SDS011;68072;51.688;7.842;2023-05-07T11:25:02;11.02;;;7.45;;
78752;SDS011;68072;51.688;7.842;2023-05-07T11:27:28;9.45;;;7.30;;
78752;SDS011;68072;51.688;7.842;2023-05-07T11:29:54;10.48;;;8.68;;
78752;SDS011;68072;51.688;7.842;2023-05-07T11:32:23;10.55;;;7.28;;
78752;SDS011;68072;51.688;7.842;2023-05-07T11:34:52;10.68;;;7.50;;
78752;SDS011;68072;51.688;7.842;2023-05-07T11:37:19;8.65;;;6.72;;
78752;SDS011;68072;51.688;7.842;2023-05-07T11:39:45;8.70;;;7.25;;
78752;SDS011;68072;51.688;7.842;2023-05-07T11:42:24;10.15;;;7.50;;
78752;SDS011;68072;51.688;7.842;2023-05-07T11:44:51;8.65;;;7.00;;
78752;SDS011;68072;51.688;7.842;2023-05-07T11:47:17;9.55;;;6.57;;
78752;SDS011;68072;51.688;7.842;2023-05-07T11:49:43;10.10;;;7.28;;
78752;SDS011;68072;51.688;7.842;2023-05-07T11:52:09;9.02;;;6.72;;
78752;SDS011;68072;51.688;7.842;2023-05-07T11:54:35;6.90;;;6.20;;
78752;SDS011;68072;51.688;7.842;2023-05-07T11:57:01;7.95;;;6.97;;
78752;SDS011;68072;51.688;7.842;2023-05-07T11:59:27;10.70;;;6.93;;
78752;SDS011;68072;51.688;7.842;2023-05-07T12:01:55;12.18;;;7.40;;
78752;SDS011;68072;51.688;7.842;2023-05-07T12:04:22;10.50;;;7.15;;
78752;SDS011;68072;51.688;7.842;2023-05-07T12:06:47;10.75;;;6.75;;
78752;SDS011;68072;51.688;7.842;2023-05-07T12:09:13;10.25;;;6.75;;
78752;SDS011;68072;51.688;7.842;2023-05-07T12:11:38;11.00;;;6.78;;
78752;SDS011;68072;51.688;7.842;2023-05-07T12:14:05;8.45;;;6.35;;
78752;SDS011;68072;51.688;7.842;2023-05-07T12:16:30;8.38;;;6.60;;
78752;SDS011;68072;51.688;7.842;2023-05-07T12:18:56;8.15;;;6.32;;
78752;SDS011;68072;51.688;7.842;2023-05-07T12:21:23;9.55;;;6.63;;
78752;SDS011;68072;51.688;7.842;2023-05-07T12:23:50;8.05;;;6.20;;
78752;SDS011;68072;51.688;7.842;2023-05-07T12:26:15;8.05;;;5.88;;
78752;SDS011;68072;51.688;7.842;2023-05-07T12:28:41;7.63;;;5.90;;
78752;SDS011;68072;51.688;7.842;2023-05-07T12:31:07;7.00;;;5.68;;
78752;SDS011;68072;51.688;7.842;2023-05-07T12:33:32;10.80;;;7.00;;
78752;SDS011;68072;51.688;7.842;2023-05-07T12:35:58;7.95;;;6.15;;
78752;SDS011;68072;51.688;7.842;2023-05-07T12:38:27;7.80;;;6.80;;
78752;SDS011;68072;51.688;7.842;2023-05-07T12:40:59;8.35;;;6.10;;
78752;SDS011;68072;51.688;7.842;2023-05-07T12:43:28;10.45;;;6.63;;
78752;SDS011;68072;51.688;7.842;2023-05-07T12:45:54;6.88;;;5.80;;
78752;SDS011;68072;51.688;7.842;2023-05-07T12:48:21;7.70;;;6.15;;
78752;SDS011;68072;51.688;7.842;2023-05-07T12:50:50;8.55;;;6.32;;
78752;SDS011;68072;51.688;7.842;2023-05-07T12:53:16;7.47;;;5.90;;
78752;SDS011;68072;51.688;7.842;2023-05-07T12:55:45;7.70;;;5.55;;
78752;SDS011;68072;51.688;7.842;2023-05-07T12:58:15;6.35;;;5.25;;
78752;SDS011;68072;51.688;7.842;2023-05-07T13:01:00;8.75;;;6.65;;
78752;SDS011;68072;51.688;7.842;2023-05-07T13:03:36;6.43;;;5.38;;
78752;SDS011;68072;51.688;7.842;2023-05-07T13:06:02;6.60;;;5.18;;
78752;SDS011;68072;51.688;7.842;2023-05-07T13:08:35;8.90;;;6.20;;
78752;SDS011;68072;51.688;7.842;2023-05-07T13:11:02;9.45;;;5.60;;
78752;SDS011;68072;51.688;7.842;2023-05-07T13:13:32;6.85;;;5.53;;
78752;SDS011;68072;51.688;7.842;2023-05-07T13:15:59;7.95;;;6.22;;
78752;SDS011;68072;51.688;7.842;2023-05-07T13:18:25;8.18;;;5.60;;
78752;SDS011;68072;51.688;7.842;2023-05-07T13:20:51;6.70;;;5.97;;
78752;SDS011;68072;51.688;7.842;2023-05-07T13:23:17;8.95;;;6.55;;
78752;SDS011;68072;51.688;7.842;2023-05-07T13:25:43;7.35;;;5.80;;
78752;SDS011;68072;51.688;7.842;2023-05-07T13:30:33;7.53;;;5.63;;
78752;SDS011;68072;51.688;7.842;2023-05-07T13:35:25;7.13;;;6.00;;
78752;SDS011;68072;51.688;7.842;2023-05-07T13:40:17;8.05;;;5.47;;
78752;SDS011;68072;51.688;7.842;2023-05-07T13:42:43;5.85;;;4.40;;
78752;SDS011;68072;51.688;7.842;2023-05-07T13:47:34;5.90;;;4.43;;
78752;SDS011;68072;51.688;7.842;2023-05-07T13:52:25;5.35;;;4.32;;
78752;SDS011;68072;51.688;7.842;2023-05-07T13:54:51;6.85;;;5.15;;
78752;SDS011;68072;51.688;7.842;2023-05-07T13:57:17;6.82;;;5.10;;
78752;SDS011;68072;51.688;7.842;2023-05-07T14:02:08;6.03;;;5.07;;
78752;SDS011;68072;51.688;7.842;2023-05-07T14:04:34;8.35;;;5.65;;
78752;SDS011;68072;51.688;7.842;2023-05-07T14:09:25;8.15;;;5.57;;
78752;SDS011;68072;51.688;7.842;2023-05-07T14:14:19;5.10;;;4.55;;
78752;SDS011;68072;51.688;7.842;2023-05-07T14:16:44;6.97;;;4.72;;
78752;SDS011;68072;51.688;7.842;2023-05-07T14:19:11;6.60;;;5.10;;
78752;SDS011;68072;51.688;7.842;2023-05-07T14:21:37;5.85;;;4.75;;
78752;SDS011;68072;51.688;7.842;2023-05-07T14:24:05;7.75;;;5.35;;
78752;SDS011;68072;51.688;7.842;2023-05-07T14:26:31;6.95;;;5.45;;
78752;SDS011;68072;51.688;7.842;2023-05-07T14:31:23;8.60;;;6.30;;
78752;SDS011;68072;51.688;7.842;2023-05-07T14:36:16;6.25;;;5.22;;
78752;SDS011;68072;51.688;7.842;2023-05-07T14:38:42;5.95;;;5.30;;
78752;SDS011;68072;51.688;7.842;2023-05-07T14:43:33;7.60;;;5.80;;
78752;SDS011;68072;51.688;7.842;2023-05-07T14:48:24;6.68;;;5.18;;
78752;SDS011;68072;51.688;7.842;2023-05-07T14:50:49;6.32;;;5.35;;
78752;SDS011;68072;51.688;7.842;2023-05-07T14:55:40;6.93;;;5.47;;
78752;SDS011;68072;51.688;7.842;2023-05-07T15:00:31;7.37;;;4.70;;
78752;SDS011;68072;51.688;7.842;2023-05-07T15:03:03;5.80;;;4.82;;
78752;SDS011;68072;51.688;7.842;2023-05-07T15:05:30;9.35;;;5.30;;
78752;SDS011;68072;51.688;7.842;2023-05-07T15:10:21;7.43;;;4.93;;
78752;SDS011;68072;51.688;7.842;2023-05-07T15:15:11;5.15;;;4.20;;
78752;SDS011;68072;51.688;7.842;2023-05-07T15:20:02;6.17;;;4.47;;
78752;SDS011;68072;51.688;7.842;2023-05-07T15:22:29;4.35;;;3.95;;
78752;SDS011;68072;51.688;7.842;2023-05-07T15:27:22;4.38;;;3.97;;
78752;SDS011;68072;51.688;7.842;2023-05-07T15:29:47;5.47;;;3.97;;
78752;SDS011;68072;51.688;7.842;2023-05-07T15:34:38;4.50;;;3.13;;
78752;SDS011;68072;51.688;7.842;2023-05-07T15:37:04;3.80;;;3.05;;
78752;SDS011;68072;51.688;7.842;2023-05-07T15:41:55;5.72;;;3.88;;
78752;SDS011;68072;51.688;7.842;2023-05-07T15:46:46;3.67;;;3.33;;
78752;SDS011;68072;51.688;7.842;2023-05-07T15:49:11;3.20;;;2.90;;
78752;SDS011;68072;51.688;7.842;2023-05-07T15:51:37;4.40;;;2.67;;
78752;SDS011;68072;51.688;7.842;2023-05-07T15:54:02;2.65;;;2.42;;
78752;SDS011;68072;51.688;7.842;2023-05-07T15:56:28;3.03;;;2.13;;
78752;SDS011;68072;51.688;7.842;2023-05-07T15:58:57;2.65;;;1.95;;
78752;SDS011;68072;51.688;7.842;2023-05-07T16:01:23;4.80;;;2.25;;
78752;SDS011;68072;51.688;7.842;2023-05-07T16:03:49;2.72;;;2.00;;
78752;SDS011;68072;51.688;7.842;2023-05-07T16:08:41;2.28;;;2.13;;
78752;SDS011;68072;51.688;7.842;2023-05-07T16:11:08;2.78;;;2.28;;
78752;SDS011;68072;51.688;7.842;2023-05-07T16:13:36;2.55;;;2.03;;